Time;durP1;ratioP1;P1;durP2;ratioP2;P2;SDS_P1;SDS_P2;PMS_P1;PMS_P2;Temp;Humidity;BMP_temperature;BMP_pressure;BME280_temperature;BME280_humidity;BME280_pressure;Samples;Min_cycle;Max_cycle;Signal;HPM_P1;HPM_P2
2022/03/28 00:00:43;;;;;;;11.63;9.63;;;;;;;;;;5066288;28;20208;-76
2022/03/28 00:03:11;;;;;;;11.90;9.70;;;;;;;;;;5064067;28;20208;-75
2022/03/28 00:05:37;;;;;;;12.63;10.20;;;;;;;;;;5069132;28;20264;-75
2022/03/28 00:08:04;;;;;;;10.93;9.43;;;;;;;;;;5063930;28;20182;-75
2022/03/28 00:10:30;;;;;;;13.23;10.03;;;;;;;;;;5063887;28;20237;-76
2022/03/28 00:12:56;;;;;;;12.87;10.57;;;;;;;;;;5065809;28;20300;-75
2022/03/28 00:15:22;;;;;;;14.77;10.83;;;;;;;;;;5066181;28;20200;-75
2022/03/28 00:17:48;;;;;;;12.70;10.30;;;;;;;;;;5067525;28;20177;-76
2022/03/28 00:20:15;;;;;;;11.57;10.37;;;;;;;;;;5070610;28;20646;-76
2022/03/28 00:22:43;;;;;;;12.30;9.53;;;;;;;;;;5057310;28;20668;-75
2022/03/28 00:25:09;;;;;;;12.23;9.87;;;;;;;;;;5066211;28;20181;-76
2022/03/28 00:27:36;;;;;;;13.13;10.10;;;;;;;;;;5063666;28;20181;-75
2022/03/28 00:30:03;;;;;;;11.37;9.60;;;;;;;;;;5066443;28;20196;-75
2022/03/28 00:32:29;;;;;;;11.23;9.90;;;;;;;;;;5064405;28;20631;-75
2022/03/28 00:34:55;;;;;;;12.50;10.57;;;;;;;;;;5063876;28;20239;-76
2022/03/28 00:37:21;;;;;;;14.00;11.40;;;;;;;;;;5065444;28;20208;-75
2022/03/28 00:39:48;;;;;;;11.77;10.40;;;;;;;;;;5066524;28;20209;-75
2022/03/28 00:42:14;;;;;;;15.43;11.63;;;;;;;;;;5063890;28;20472;-75
2022/03/28 00:44:40;;;;;;;15.30;11.40;;;;;;;;;;5065975;28;20537;-75
2022/03/28 00:47:06;;;;;;;13.27;11.10;;;;;;;;;;5068278;28;20272;-75
2022/03/28 00:49:32;;;;;;;12.87;10.90;;;;;;;;;;5065054;28;20199;-75
2022/03/28 00:51:58;;;;;;;11.83;10.33;;;;;;;;;;5063660;28;20231;-75
2022/03/28 00:54:25;;;;;;;13.43;10.33;;;;;;;;;;5063111;28;20212;-75
2022/03/28 00:56:51;;;;;;;11.23;9.17;;;;;;;;;;5069185;28;20209;-75
2022/03/28 00:59:18;;;;;;;12.23;10.30;;;;;;;;;;5067757;28;20177;-75
2022/03/28 01:01:46;;;;;;;12.20;9.77;;;;;;;;;;5065332;28;20204;-75
2022/03/28 01:04:12;;;;;;;12.37;10.40;;;;;;;;;;5069015;28;20250;-75
2022/03/28 01:06:38;;;;;;;11.73;9.93;;;;;;;;;;5063491;28;20555;-76
2022/03/28 01:09:05;;;;;;;11.80;9.33;;;;;;;;;;5068446;28;20569;-76
2022/03/28 01:11:34;;;;;;;11.47;9.80;;;;;;;;;;5066635;28;20177;-75
2022/03/28 01:14:01;;;;;;;11.73;10.27;;;;;;;;;;5062951;28;20223;-76
2022/03/28 01:16:30;;;;;;;11.23;9.80;;;;;;;;;;5067755;28;20209;-75
2022/03/28 01:18:56;;;;;;;12.73;9.57;;;;;;;;;;5062881;28;20181;-75
2022/03/28 01:21:23;;;;;;;15.10;10.00;;;;;;;;;;5064813;28;20184;-75
2022/03/28 01:23:51;;;;;;;11.43;9.70;;;;;;;;;;5065882;28;20202;-75
2022/03/28 01:26:17;;;;;;;10.50;9.40;;;;;;;;;;5065582;28;20547;-75
2022/03/28 01:28:43;;;;;;;11.90;9.47;;;;;;;;;;5064317;28;20184;-75
2022/03/28 01:31:09;;;;;;;14.20;9.87;;;;;;;;;;5065488;28;20209;-75
2022/03/28 01:33:35;;;;;;;12.70;10.00;;;;;;;;;;5059050;28;20212;-75
2022/03/28 01:36:02;;;;;;;12.37;10.30;;;;;;;;;;5058657;28;20206;-75
2022/03/28 01:38:28;;;;;;;12.20;10.90;;;;;;;;;;5067122;28;20240;-75
2022/03/28 01:40:54;;;;;;;13.03;11.07;;;;;;;;;;5062747;28;20189;-75
2022/03/28 01:43:21;;;;;;;13.57;10.90;;;;;;;;;;5067124;28;20804;-75
2022/03/28 01:45:47;;;;;;;13.67;10.80;;;;;;;;;;5066864;28;20255;-75
2022/03/28 01:48:13;;;;;;;12.23;10.47;;;;;;;;;;5073730;28;20189;-75
2022/03/28 01:50:40;;;;;;;13.70;10.60;;;;;;;;;;5061136;28;20196;-75
2022/03/28 01:53:06;;;;;;;12.77;10.17;;;;;;;;;;5062890;28;20205;-75
2022/03/28 01:55:33;;;;;;;11.50;10.30;;;;;;;;;;5062768;28;20300;-75
2022/03/28 01:57:59;;;;;;;14.27;10.67;;;;;;;;;;5062411;28;20193;-75
2022/03/28 02:00:26;;;;;;;11.23;10.00;;;;;;;;;;5061196;28;20294;-75
2022/03/28 02:02:53;;;;;;;12.53;9.90;;;;;;;;;;5061730;28;20224;-75
2022/03/28 02:05:19;;;;;;;14.07;10.30;;;;;;;;;;5063497;28;20200;-75
2022/03/28 02:07:48;;;;;;;11.97;9.67;;;;;;;;;;5065102;28;20531;-74
2022/03/28 02:10:15;;;;;;;11.63;10.13;;;;;;;;;;5085971;28;20197;-75
2022/03/28 02:12:41;;;;;;;11.67;9.80;;;;;;;;;;5064918;28;20592;-75
2022/03/28 02:15:08;;;;;;;13.90;9.87;;;;;;;;;;5067712;28;20196;-75
2022/03/28 02:17:35;;;;;;;13.63;10.43;;;;;;;;;;5064527;28;20295;-75
2022/03/28 02:20:02;;;;;;;13.57;10.90;;;;;;;;;;5066686;28;20212;-75
2022/03/28 02:22:28;;;;;;;11.00;9.77;;;;;;;;;;5068880;28;20283;-75
2022/03/28 02:24:55;;;;;;;13.80;11.03;;;;;;;;;;5063968;28;20177;-75
2022/03/28 02:27:21;;;;;;;12.90;10.67;;;;;;;;;;5067057;28;20246;-74
2022/03/28 02:29:47;;;;;;;11.13;9.53;;;;;;;;;;5066164;28;20189;-75
2022/03/28 02:32:14;;;;;;;10.87;9.70;;;;;;;;;;5067836;28;20193;-75
2022/03/28 02:34:40;;;;;;;11.90;9.87;;;;;;;;;;5065819;28;20197;-75
2022/03/28 02:37:07;;;;;;;12.73;10.00;;;;;;;;;;5066499;28;20802;-75
2022/03/28 02:39:33;;;;;;;13.60;10.93;;;;;;;;;;5063524;28;20186;-75
2022/03/28 02:41:59;;;;;;;12.50;10.20;;;;;;;;;;5060769;28;20465;-75
2022/03/28 02:44:25;;;;;;;11.17;9.77;;;;;;;;;;5063024;28;20279;-75
2022/03/28 02:46:51;;;;;;;14.73;10.33;;;;;;;;;;5064740;28;20189;-75
2022/03/28 02:49:21;;;;;;;11.57;10.03;;;;;;;;;;5063375;28;20264;-75
2022/03/28 02:51:47;;;;;;;13.73;10.37;;;;;;;;;;5063891;28;20274;-75
2022/03/28 02:54:13;;;;;;;12.20;10.17;;;;;;;;;;5065170;28;20209;-75
2022/03/28 02:56:39;;;;;;;13.33;10.77;;;;;;;;;;5069723;28;20253;-75
2022/03/28 02:59:06;;;;;;;13.20;11.33;;;;;;;;;;5063143;28;20269;-74
2022/03/28 03:01:32;;;;;;;14.20;10.77;;;;;;;;;;5063339;28;20280;-75
2022/03/28 03:03:58;;;;;;;13.20;11.80;;;;;;;;;;5064555;28;20653;-75
2022/03/28 03:06:24;;;;;;;13.27;11.57;;;;;;;;;;5064887;28;20192;-75
2022/03/28 03:08:50;;;;;;;12.57;10.60;;;;;;;;;;5065328;28;20174;-75
2022/03/28 03:11:17;;;;;;;12.73;10.67;;;;;;;;;;5065931;28;20192;-75
2022/03/28 03:13:43;;;;;;;14.80;10.90;;;;;;;;;;5063925;28;20343;-75
2022/03/28 03:16:09;;;;;;;12.90;10.90;;;;;;;;;;5063108;28;20220;-75
2022/03/28 03:18:36;;;;;;;12.90;9.80;;;;;;;;;;5060181;28;20185;-74
2022/03/28 03:21:02;;;;;;;13.10;10.40;;;;;;;;;;5063135;28;20680;-75
2022/03/28 03:23:28;;;;;;;13.63;10.17;;;;;;;;;;5060682;28;20628;-75
2022/03/28 03:25:55;;;;;;;11.80;10.30;;;;;;;;;;5066486;28;20181;-75
2022/03/28 03:28:21;;;;;;;13.87;10.63;;;;;;;;;;5064588;28;20243;-75
2022/03/28 03:30:48;;;;;;;12.43;10.10;;;;;;;;;;5066478;28;20177;-75
2022/03/28 03:33:14;;;;;;;13.43;10.80;;;;;;;;;;5067601;28;20208;-75
2022/03/28 03:35:40;;;;;;;13.83;10.50;;;;;;;;;;5065885;28;20205;-75
2022/03/28 03:38:06;;;;;;;15.97;11.93;;;;;;;;;;5068590;28;20271;-75
2022/03/28 03:40:33;;;;;;;16.30;11.53;;;;;;;;;;5072155;28;20222;-75
2022/03/28 03:42:59;;;;;;;14.37;10.80;;;;;;;;;;5070343;28;20208;-75
2022/03/28 03:45:26;;;;;;;13.43;10.57;;;;;;;;;;5067219;28;20290;-75
2022/03/28 03:47:52;;;;;;;14.80;10.87;;;;;;;;;;5067655;28;20622;-75
2022/03/28 03:50:18;;;;;;;15.50;11.00;;;;;;;;;;5067087;28;20189;-75
2022/03/28 03:52:44;;;;;;;13.43;10.43;;;;;;;;;;5064968;28;20679;-75
2022/03/28 03:55:10;;;;;;;12.47;10.57;;;;;;;;;;5072292;28;20189;-75
2022/03/28 03:57:37;;;;;;;13.33;10.10;;;;;;;;;;5071042;28;20232;-75
2022/03/28 04:00:04;;;;;;;13.70;10.70;;;;;;;;;;5070676;28;20205;-74
2022/03/28 04:02:38;;;;;;;14.93;10.93;;;;;;;;;;5069794;28;20339;-75
2022/03/28 04:05:04;;;;;;;14.93;10.97;;;;;;;;;;5069077;28;20178;-75
2022/03/28 04:07:30;;;;;;;14.53;11.10;;;;;;;;;;5069325;28;20189;-75
2022/03/28 04:09:59;;;;;;;15.43;12.17;;;;;;;;;;5071738;28;20641;-75
2022/03/28 04:12:25;;;;;;;17.97;12.20;;;;;;;;;;5067333;28;20268;-75
2022/03/28 04:14:53;;;;;;;12.13;10.70;;;;;;;;;;5072113;28;20177;-75
2022/03/28 04:17:19;;;;;;;14.47;11.20;;;;;;;;;;5070008;28;20205;-75
2022/03/28 04:19:45;;;;;;;13.40;10.97;;;;;;;;;;5069282;28;20185;-75
2022/03/28 04:22:11;;;;;;;13.43;10.20;;;;;;;;;;5066631;28;20204;-74
2022/03/28 04:24:38;;;;;;;13.13;10.10;;;;;;;;;;5072751;28;20675;-74
2022/03/28 04:27:04;;;;;;;12.13;10.00;;;;;;;;;;5069734;28;20189;-75
2022/03/28 04:29:30;;;;;;;13.63;10.83;;;;;;;;;;5072135;28;20185;-74
2022/03/28 04:31:56;;;;;;;14.33;11.13;;;;;;;;;;5072780;28;20789;-74
2022/03/28 04:34:22;;;;;;;14.90;12.53;;;;;;;;;;5064701;28;20201;-75
2022/03/28 04:36:48;;;;;;;14.57;11.33;;;;;;;;;;5067973;28;20221;-74
2022/03/28 04:39:14;;;;;;;16.77;11.67;;;;;;;;;;5062178;28;20192;-75
2022/03/28 04:41:41;;;;;;;13.50;10.80;;;;;;;;;;5067653;28;20653;-75
2022/03/28 04:44:07;;;;;;;12.83;10.10;;;;;;;;;;5068039;28;20193;-74
2022/03/28 04:46:33;;;;;;;18.00;12.13;;;;;;;;;;5063692;28;20251;-74
2022/03/28 04:48:59;;;;;;;17.90;11.80;;;;;;;;;;5065654;28;20606;-75
2022/03/28 04:51:25;;;;;;;14.67;12.07;;;;;;;;;;5071392;28;20280;-75
2022/03/28 04:53:51;;;;;;;18.63;12.60;;;;;;;;;;5070853;28;20251;-75
2022/03/28 04:56:17;;;;;;;13.97;10.97;;;;;;;;;;5070518;28;20212;-74
2022/03/28 04:58:44;;;;;;;12.63;10.57;;;;;;;;;;5071225;28;20184;-75
2022/03/28 05:01:10;;;;;;;14.53;11.60;;;;;;;;;;5064614;28;20204;-74
2022/03/28 05:03:36;;;;;;;13.17;10.87;;;;;;;;;;5066655;28;20791;-75
2022/03/28 05:06:02;;;;;;;14.27;11.63;;;;;;;;;;5065374;28;20195;-75
2022/03/28 05:08:29;;;;;;;14.37;10.27;;;;;;;;;;5064146;28;20276;-75
2022/03/28 05:10:55;;;;;;;14.47;10.83;;;;;;;;;;5066868;28;20184;-75
2022/03/28 05:13:21;;;;;;;14.20;11.00;;;;;;;;;;5063042;28;20209;-75
2022/03/28 05:15:47;;;;;;;14.17;11.23;;;;;;;;;;5063779;28;20224;-75
2022/03/28 05:18:16;;;;;;;15.57;11.43;;;;;;;;;;5065157;28;20193;-74
2022/03/28 05:20:42;;;;;;;18.67;11.77;;;;;;;;;;5070862;28;20391;-76
2022/03/28 05:23:09;;;;;;;16.93;10.93;;;;;;;;;;5070349;28;20260;-79
2022/03/28 05:25:35;;;;;;;19.87;12.37;;;;;;;;;;5069415;28;20589;-83
2022/03/28 05:28:01;;;;;;;18.03;12.03;;;;;;;;;;5064198;28;20223;-78
2022/03/28 05:30:27;;;;;;;14.30;10.63;;;;;;;;;;5067047;28;20178;-75
2022/03/28 05:32:53;;;;;;;15.33;11.23;;;;;;;;;;5067030;28;20221;-77
2022/03/28 05:35:19;;;;;;;16.87;10.70;;;;;;;;;;5076702;28;20189;-78
2022/03/28 05:37:46;;;;;;;13.23;10.20;;;;;;;;;;5070164;28;21827;-79
2022/03/28 05:40:13;;;;;;;17.23;12.03;;;;;;;;;;5075473;28;20185;-80
2022/03/28 05:42:39;;;;;;;15.07;10.80;;;;;;;;;;5066271;28;20205;-76
2022/03/28 05:45:06;;;;;;;25.53;14.70;;;;;;;;;;5051701;28;20177;-79
2022/03/28 05:47:32;;;;;;;20.87;13.37;;;;;;;;;;5071571;28;20200;-80
2022/03/28 05:49:58;;;;;;;17.50;12.10;;;;;;;;;;5071489;28;20272;-78
2022/03/28 05:52:24;;;;;;;14.67;10.87;;;;;;;;;;5049254;28;20194;-79
2022/03/28 05:54:51;;;;;;;19.83;11.53;;;;;;;;;;5070352;28;20264;-82
2022/03/28 05:57:17;;;;;;;16.73;9.90;;;;;;;;;;5068832;28;20237;-79
2022/03/28 05:59:44;;;;;;;19.00;11.20;;;;;;;;;;5068907;28;20186;-78
2022/03/28 06:02:10;;;;;;;15.07;10.97;;;;;;;;;;5070629;28;20216;-80
2022/03/28 06:04:36;;;;;;;14.83;10.23;;;;;;;;;;5069111;28;20204;-79
2022/03/28 06:07:02;;;;;;;18.63;10.53;;;;;;;;;;5049422;28;20192;-80
2022/03/28 06:09:28;;;;;;;18.57;11.97;;;;;;;;;;5070621;28;20268;-78
2022/03/28 06:11:55;;;;;;;24.73;13.97;;;;;;;;;;5064954;28;20193;-79
2022/03/28 06:14:21;;;;;;;21.37;12.40;;;;;;;;;;5069136;28;20208;-78
2022/03/28 06:16:47;;;;;;;22.27;14.03;;;;;;;;;;5065907;28;20710;-78
2022/03/28 06:19:13;;;;;;;23.57;14.53;;;;;;;;;;5047476;28;20227;-80
2022/03/28 06:21:40;;;;;;;23.83;13.17;;;;;;;;;;5064120;28;20260;-79
2022/03/28 06:24:07;;;;;;;25.13;15.10;;;;;;;;;;5066887;28;20193;-78
2022/03/28 06:26:34;;;;;;;20.60;13.43;;;;;;;;;;5066437;28;20687;-79
2022/03/28 06:29:00;;;;;;;17.03;12.63;;;;;;;;;;5067645;28;20185;-78
2022/03/28 06:31:26;;;;;;;15.63;12.10;;;;;;;;;;5066089;28;20177;-78
2022/03/28 06:33:57;;;;;;;21.60;12.47;;;;;;;;;;5082499;28;20200;-78
2022/03/28 06:36:23;;;;;;;16.63;11.53;;;;;;;;;;5073424;28;20692;-79
2022/03/28 06:38:50;;;;;;;16.33;11.73;;;;;;;;;;5068529;28;20188;-79
2022/03/28 06:41:16;;;;;;;17.07;12.10;;;;;;;;;;5069144;28;20653;-79
2022/03/28 06:43:42;;;;;;;16.47;12.40;;;;;;;;;;5044401;28;20209;-78
2022/03/28 06:46:08;;;;;;;18.93;12.33;;;;;;;;;;5057592;28;20569;-79
2022/03/28 06:48:34;;;;;;;16.93;13.40;;;;;;;;;;5064531;28;20302;-79
2022/03/28 06:51:00;;;;;;;15.83;12.17;;;;;;;;;;5057536;28;20214;-78
2022/03/28 06:53:27;;;;;;;18.00;11.97;;;;;;;;;;5066502;28;20673;-79
2022/03/28 06:55:53;;;;;;;23.80;16.20;;;;;;;;;;5068642;28;20223;-79
2022/03/28 06:58:19;;;;;;;20.40;13.67;;;;;;;;;;5065264;28;20212;-79
2022/03/28 07:00:45;;;;;;;20.47;13.10;;;;;;;;;;5031030;28;1037825;-79
2022/03/28 07:03:12;;;;;;;21.47;14.73;;;;;;;;;;5058199;28;20220;-78
2022/03/28 07:05:39;;;;;;;20.87;13.87;;;;;;;;;;5059205;28;20653;-79
2022/03/28 07:08:05;;;;;;;17.03;12.87;;;;;;;;;;5076968;28;20205;-79
2022/03/28 07:10:31;;;;;;;23.90;14.83;;;;;;;;;;5063305;28;20208;-79
2022/03/28 07:12:57;;;;;;;19.50;14.57;;;;;;;;;;5053962;28;20226;-79
2022/03/28 07:15:24;;;;;;;20.40;15.03;;;;;;;;;;5035097;28;20189;-79
2022/03/28 07:17:54;;;;;;;20.97;15.57;;;;;;;;;;5048584;28;20197;-78
2022/03/28 07:20:24;;;;;;;29.47;18.17;;;;;;;;;;5049577;28;20203;-79
2022/03/28 07:22:51;;;;;;;32.97;20.53;;;;;;;;;;5048466;28;20207;-78
2022/03/28 07:25:17;;;;;;;32.97;21.07;;;;;;;;;;5048635;28;20181;-79
2022/03/28 07:27:43;;;;;;;29.43;20.73;;;;;;;;;;5047360;28;20181;-79
2022/03/28 07:30:10;;;;;;;35.77;22.10;;;;;;;;;;5048461;28;20185;-79
2022/03/28 07:32:36;;;;;;;27.73;20.07;;;;;;;;;;5046187;28;20214;-79
2022/03/28 07:35:03;;;;;;;24.03;18.00;;;;;;;;;;5050613;28;20185;-78
2022/03/28 07:37:29;;;;;;;23.20;17.73;;;;;;;;;;5047257;28;20213;-79
2022/03/28 07:39:56;;;;;;;21.33;17.60;;;;;;;;;;5048013;28;20181;-78
2022/03/28 07:42:23;;;;;;;23.70;17.63;;;;;;;;;;5055777;28;20590;-78
2022/03/28 07:44:49;;;;;;;23.40;17.63;;;;;;;;;;5066579;28;20185;-77
2022/03/28 07:47:15;;;;;;;23.60;17.70;;;;;;;;;;5064728;28;20185;-77
2022/03/28 07:49:42;;;;;;;24.67;18.60;;;;;;;;;;5063244;28;20193;-78
2022/03/28 07:52:08;;;;;;;24.37;19.13;;;;;;;;;;5064135;28;20185;-78
2022/03/28 07:54:36;;;;;;;24.40;18.67;;;;;;;;;;5065635;28;20196;-78
2022/03/28 07:57:02;;;;;;;22.37;18.63;;;;;;;;;;5066560;28;20303;-78
2022/03/28 07:59:29;;;;;;;24.40;19.23;;;;;;;;;;5064177;28;20188;-78
2022/03/28 08:01:55;;;;;;;23.30;19.37;;;;;;;;;;5066647;28;20205;-78
2022/03/28 08:04:21;;;;;;;22.10;17.97;;;;;;;;;;5062324;28;20202;-78
2022/03/28 08:06:48;;;;;;;23.63;19.60;;;;;;;;;;5067951;28;20212;-78
2022/03/28 08:09:14;;;;;;;23.53;18.80;;;;;;;;;;5063965;28;20196;-78
2022/03/28 08:11:42;;;;;;;25.83;19.63;;;;;;;;;;5062284;28;20672;-78
2022/03/28 08:14:08;;;;;;;22.73;18.67;;;;;;;;;;5067001;28;20708;-78
2022/03/28 08:16:34;;;;;;;20.93;17.50;;;;;;;;;;5059621;28;20223;-78
2022/03/28 08:19:00;;;;;;;22.27;19.07;;;;;;;;;;5065943;28;20188;-78
2022/03/28 08:21:27;;;;;;;23.37;18.47;;;;;;;;;;5061710;28;20181;-78
2022/03/28 08:23:53;;;;;;;21.93;18.47;;;;;;;;;;5068485;28;20204;-78
2022/03/28 08:26:20;;;;;;;19.20;16.30;;;;;;;;;;5066106;28;20196;-78
2022/03/28 08:28:46;;;;;;;24.73;17.87;;;;;;;;;;5059688;28;20295;-78
2022/03/28 08:31:13;;;;;;;23.83;18.23;;;;;;;;;;5060842;28;20185;-78
2022/03/28 08:33:39;;;;;;;21.20;17.57;;;;;;;;;;5057214;28;20262;-77
2022/03/28 08:36:06;;;;;;;21.93;18.43;;;;;;;;;;5070740;28;20641;-77
2022/03/28 08:38:34;;;;;;;24.60;18.33;;;;;;;;;;5070804;28;20187;-77
2022/03/28 08:41:01;;;;;;;23.00;19.63;;;;;;;;;;5070338;28;20182;-77
2022/03/28 08:43:27;;;;;;;22.77;18.80;;;;;;;;;;5071429;28;20189;-77
2022/03/28 08:45:54;;;;;;;28.43;21.00;;;;;;;;;;5070653;28;20185;-77
2022/03/28 08:48:20;;;;;;;24.43;19.37;;;;;;;;;;5069909;28;20189;-77
2022/03/28 08:50:49;;;;;;;26.63;19.37;;;;;;;;;;5069239;28;20243;-78
2022/03/28 08:53:16;;;;;;;23.40;19.53;;;;;;;;;;5069861;28;20241;-77
2022/03/28 08:55:44;;;;;;;24.70;19.07;;;;;;;;;;5070317;28;20217;-78
2022/03/28 08:58:11;;;;;;;20.87;18.53;;;;;;;;;;5067587;28;20260;-77
2022/03/28 09:00:37;;;;;;;22.17;17.73;;;;;;;;;;5071489;28;20197;-78
2022/03/28 09:03:04;;;;;;;22.90;18.53;;;;;;;;;;5071651;28;20556;-78
2022/03/28 09:05:34;;;;;;;21.77;18.93;;;;;;;;;;5084795;28;20185;-78
2022/03/28 09:08:01;;;;;;;24.23;19.30;;;;;;;;;;5064542;28;20196;-78
2022/03/28 09:10:29;;;;;;;22.00;18.40;;;;;;;;;;5066141;28;20711;-78
2022/03/28 09:12:59;;;;;;;23.80;19.20;;;;;;;;;;5067499;28;20668;-78
2022/03/28 09:15:25;;;;;;;25.13;19.47;;;;;;;;;;5071283;28;20211;-79
2022/03/28 09:17:56;;;;;;;28.00;20.53;;;;;;;;;;5067090;28;20206;-79
2022/03/28 09:20:22;;;;;;;23.63;18.93;;;;;;;;;;5071376;28;20184;-79
2022/03/28 09:22:49;;;;;;;24.60;18.40;;;;;;;;;;5053961;28;20262;-79
2022/03/28 09:25:17;;;;;;;21.73;17.60;;;;;;;;;;5069389;28;20181;-79
2022/03/28 09:27:49;;;;;;;22.00;18.53;;;;;;;;;;5072336;28;20596;-79
2022/03/28 09:30:20;;;;;;;23.00;17.53;;;;;;;;;;5067462;28;20569;-80
2022/03/28 09:32:48;;;;;;;24.30;18.83;;;;;;;;;;5034011;28;20669;-79
2022/03/28 09:35:19;;;;;;;22.90;18.43;;;;;;;;;;5085837;28;20204;-80
2022/03/28 09:37:48;;;;;;;22.77;18.83;;;;;;;;;;5070654;28;20215;-79
2022/03/28 09:40:35;;;;;;;23.27;18.70;;;;;;;;;;5072160;28;20192;-80
2022/03/28 09:43:03;;;;;;;24.97;19.00;;;;;;;;;;5071445;28;20284;-80
2022/03/28 09:45:53;;;;;;;20.83;17.17;;;;;;;;;;5068140;28;20276;-80
2022/03/28 09:48:19;;;;;;;23.53;17.90;;;;;;;;;;5064278;28;20669;-79
2022/03/28 09:50:46;;;;;;;21.83;17.20;;;;;;;;;;5064847;28;20646;-79
2022/03/28 09:53:25;;;;;;;21.50;18.00;;;;;;;;;;5067519;28;20286;-79
2022/03/28 09:55:52;;;;;;;23.27;17.43;;;;;;;;;;5066090;28;20193;-80
2022/03/28 09:58:33;;;;;;;20.60;16.30;;;;;;;;;;5067454;28;20177;-80
2022/03/28 10:01:00;;;;;;;23.13;16.03;;;;;;;;;;5071068;28;20324;-79
2022/03/28 10:03:32;;;;;;;20.50;15.67;;;;;;;;;;5070243;28;20210;-80
2022/03/28 10:05:59;;;;;;;19.07;15.90;;;;;;;;;;5060878;28;20185;-80
2022/03/28 10:08:27;;;;;;;19.30;15.77;;;;;;;;;;5070403;28;20318;-79
2022/03/28 10:10:53;;;;;;;20.17;16.33;;;;;;;;;;5054994;28;20716;-81
2022/03/28 10:13:22;;;;;;;20.87;16.47;;;;;;;;;;5074484;28;20692;-81
2022/03/28 10:15:48;;;;;;;21.13;16.70;;;;;;;;;;5071637;28;20228;-80
2022/03/28 10:18:14;;;;;;;20.83;17.47;;;;;;;;;;5055986;28;20193;-80
2022/03/28 10:20:45;;;;;;;23.20;17.30;;;;;;;;;;5078131;28;20208;-80
2022/03/28 10:23:13;;;;;;;19.73;16.10;;;;;;;;;;5075686;28;20225;-80
2022/03/28 10:25:40;;;;;;;18.97;16.23;;;;;;;;;;5068754;28;20199;-80
2022/03/28 10:28:08;;;;;;;18.60;15.30;;;;;;;;;;5051646;28;20200;-81
2022/03/28 10:30:34;;;;;;;17.57;14.13;;;;;;;;;;5053380;28;20189;-80
2022/03/28 10:33:11;;;;;;;19.23;16.40;;;;;;;;;;5046668;28;20237;-81
2022/03/28 10:35:37;;;;;;;22.03;16.47;;;;;;;;;;5050047;28;20184;-79
2022/03/28 10:38:16;;;;;;;20.83;16.13;;;;;;;;;;5067302;28;20181;-82
2022/03/28 10:40:53;;;;;;;19.63;15.77;;;;;;;;;;5067063;28;20229;-81
2022/03/28 10:43:19;;;;;;;18.77;16.20;;;;;;;;;;5066978;28;20730;-81
2022/03/28 10:45:47;;;;;;;19.50;15.27;;;;;;;;;;5054310;28;20185;-81
2022/03/28 10:48:14;;;;;;;17.00;15.13;;;;;;;;;;5070708;28;20299;-81
2022/03/28 10:50:43;;;;;;;19.60;15.73;;;;;;;;;;5054019;28;20644;-81
2022/03/28 10:53:13;;;;;;;18.27;15.07;;;;;;;;;;5073036;28;20701;-81
2022/03/28 10:55:46;;;;;;;20.63;14.03;;;30.10;57.10;;;;;;5070189;28;20556;-81
2022/03/28 10:58:16;;;;;;;16.17;14.07;;;17.40;67.80;;;;;;5071157;28;20238;-81
2022/03/28 11:01:13;;;;;;;18.97;13.80;;;17.40;65.70;;;;;;5034405;28;20206;-82
2022/03/28 11:03:43;;;;;;;21.10;14.93;;;17.40;63.70;;;;;;5049862;28;20883;-81
2022/03/28 11:06:09;;;;;;;16.63;13.83;;;17.50;63.60;;;;;;5076954;28;20189;-81
2022/03/28 11:08:41;;;;;;;18.07;13.80;;;17.50;63.60;;;;;;5080815;28;20184;-81
2022/03/28 11:11:17;;;;;;;18.33;13.63;;;17.70;62.80;;;;;;5076193;28;20288;-81
2022/03/28 11:13:44;;;;;;;18.10;15.50;;;17.90;63.10;;;;;;5054650;28;20216;-81
2022/03/28 11:16:23;;;;;;;15.23;13.60;;;18.10;61.30;;;;;;5041965;28;20736;-82
2022/03/28 11:19:24;;;;;;;21.63;14.87;;;18.20;61.00;;;;;;5067610;28;20177;-83
2022/03/28 11:22:05;;;;;;;17.47;14.53;;;18.40;59.30;;;;;;5074337;28;20550;-83
2022/03/28 11:24:52;;;;;;;19.07;13.63;;;18.50;57.50;;;;;;5069317;28;20232;-84
2022/03/28 11:27:19;;;;;;;16.30;14.50;;;18.60;57.50;;;;;;5030939;28;20189;-80
2022/03/28 11:29:46;;;;;;;16.53;13.13;;;18.90;57.50;;;;;;5062191;28;20259;-78
2022/03/28 11:32:15;;;;;;;17.93;13.23;;;19.10;57.50;;;;;;5061413;28;20188;-78
2022/03/28 11:34:41;;;;;;;16.73;12.10;;;19.30;56.20;;;;;;5074502;28;20189;-77
2022/03/28 11:37:07;;;;;;;16.47;13.27;;;19.40;54.20;;;;;;5049889;28;21020;-78
2022/03/28 11:39:52;;;;;;;18.20;13.20;;;19.50;53.40;;;;;;5057843;28;20201;-78
2022/03/28 11:42:27;;;;;;;20.73;13.33;;;19.70;52.20;;;;;;5048307;28;20657;-78
2022/03/28 11:44:53;;;;;;;17.50;12.30;;;19.80;52.10;;;;;;5060873;28;20168;-78
2022/03/28 11:47:20;;;;;;;15.50;12.10;;;;;;;;;;5064298;28;20192;-78
2022/03/28 11:50:00;;;;;;;19.17;14.13;;;20.30;51.10;;;;;;5068641;28;20276;-78
2022/03/28 11:52:31;;;;;;;15.07;11.97;;;20.50;51.20;;;;;;5057812;28;20230;-79
2022/03/28 11:54:58;;;;;;;15.20;11.87;;;20.60;50.50;;;;;;5074067;28;20208;-79
2022/03/28 12:00:16;;;;;;;17.20;12.97;;;21.20;49.70;;;;;;5071099;28;20189;-79
2022/03/28 12:02:56;;;;;;;16.63;12.73;;;21.60;49.20;;;;;;5069919;28;20201;-76
2022/03/28 12:05:30;;;;;;;14.93;12.30;;;21.80;48.20;;;;;;5068583;28;20185;-76
2022/03/28 12:07:57;;;;;;;16.63;12.13;;;22.20;47.40;;;;;;5069685;28;20183;-76
2022/03/28 12:10:28;;;;;;;15.03;11.97;;;22.60;47.20;;;;;;5069106;28;20574;-76
2022/03/28 12:12:57;;;;;;;15.20;11.93;;;23.10;45.30;;;;;;5069369;28;20318;-77
2022/03/28 12:15:27;;;;;;;21.20;13.37;;;;;;;;;;5069558;28;20604;-77
2022/03/28 12:17:54;;;;;;;18.00;12.80;;;;;;;;;;5068385;28;20293;-76
2022/03/28 12:20:25;;;;;;;15.30;11.10;;;;;;;;;;5085587;28;20183;-77
2022/03/28 12:22:51;;;;;;;17.23;13.27;;;;;;;;;;5067752;28;20208;-77
2022/03/28 12:25:25;;;;;;;16.13;12.07;;;;;;;;;;5061233;28;20232;-74
2022/03/28 12:27:53;;;;;;;14.67;11.03;;;;;;;;;;5068958;28;20205;-75
2022/03/28 12:30:23;;;;;;;12.70;10.57;;;;;;;;;;5062342;28;20192;-76
2022/03/28 12:32:49;;;;;;;13.80;10.80;;;;;;;;;;5061456;28;20225;-77
2022/03/28 12:35:17;;;;;;;14.53;11.03;;;;;;;;;;5066732;28;20241;-77
2022/03/28 12:37:43;;;;;;;14.67;10.57;;;;;;;;;;5067782;28;20219;-77
2022/03/28 12:40:10;;;;;;;13.23;11.30;;;;;;;;;;5070404;28;20170;-77
2022/03/28 12:42:36;;;;;;;14.60;9.87;;;;;;;;;;5066976;28;20296;-76
2022/03/28 12:45:02;;;;;;;13.90;10.17;;;;;;;;;;5062083;28;20189;-76
2022/03/28 12:47:29;;;;;;;14.80;10.20;;;;;;;;;;5063743;28;20225;-77
2022/03/28 12:49:56;;;;;;;13.57;10.30;;;;;;;;;;5065046;28;20185;-77
2022/03/28 12:52:24;;;;;;;13.80;10.43;;;;;;;;;;5061358;28;20188;-76
2022/03/28 12:54:57;;;;;;;15.77;11.40;;;;;;;;;;5069310;28;20201;-77
2022/03/28 12:57:26;;;;;;;13.13;10.07;;;;;;;;;;5066917;28;20221;-78
2022/03/28 12:59:54;;;;;;;12.67;11.13;;;;;;;;;;5066336;28;20969;-77
2022/03/28 13:02:20;;;;;;;12.67;10.60;;;;;;;;;;5060473;28;20287;-76
2022/03/28 13:04:51;;;;;;;14.53;11.27;;;;;;;;;;5065238;28;20191;-76
2022/03/28 13:07:18;;;;;;;14.93;10.93;;;;;;;;;;5061229;28;20196;-76
2022/03/28 13:09:55;;;;;;;14.93;12.27;;;;;;;;;;5062592;28;20702;-77
2022/03/28 13:12:33;;;;;;;11.70;10.17;;;;;;;;;;5064926;28;20192;-76
2022/03/28 13:14:59;;;;;;;12.47;10.20;;;;;;;;;;5069002;28;20203;-76
2022/03/28 13:17:25;;;;;;;13.10;10.37;;;;;;;;;;5062181;28;20231;-76
2022/03/28 13:19:59;;;;;;;13.83;10.60;;;;;;;;;;5064706;28;20227;-77
2022/03/28 13:22:30;;;;;;;11.50;9.97;;;;;;;;;;5062672;28;20209;-77
2022/03/28 13:25:09;;;;;;;12.97;11.17;;;;;;;;;;5062336;28;20205;-77
2022/03/28 13:30:22;;;;;;;13.33;10.57;;;;;;;;;;5070914;28;20198;-76
2022/03/28 13:32:49;;;;;;;12.07;10.30;;;;;;;;;;5065390;28;20213;-76
2022/03/28 13:35:16;;;;;;;12.40;10.50;;;;;;;;;;5071120;28;20185;-77
2022/03/28 13:37:53;;;;;;;14.13;10.67;;;;;;;;;;5070939;28;20240;-76
2022/03/28 13:40:19;;;;;;;13.73;10.50;;;;;;;;;;5066391;28;20178;-76
2022/03/28 13:42:46;;;;;;;13.53;10.33;;;;;;;;;;5070155;28;20553;-77
2022/03/28 13:45:12;;;;;;;12.53;10.23;;;;;;;;;;5065062;28;20188;-77
2022/03/28 13:47:39;;;;;;;13.07;10.07;;;;;;;;;;5069156;28;20187;-77
2022/03/28 13:50:05;;;;;;;14.80;10.67;;;;;;;;;;5071526;28;20192;-79
2022/03/28 13:52:32;;;;;;;11.77;10.57;;;;;;;;;;5068867;28;20215;-79
2022/03/28 13:54:58;;;;;;;12.87;9.77;;;;;;;;;;5070889;28;20318;-78
2022/03/28 13:57:26;;;;;;;11.97;10.47;;;;;;;;;;5071961;28;20286;-83
2022/03/28 13:59:53;;;;;;;12.60;10.53;;;;;;;;;;5065731;28;20386;-86
2022/03/28 14:02:19;;;;;;;13.60;10.67;;;;;;;;;;5060740;28;20214;-79
2022/03/28 14:04:45;;;;;;;13.00;9.90;;;;;;;;;;5061838;28;20196;-81
2022/03/28 14:07:11;;;;;;;13.87;10.97;;;;;;;;;;5070760;28;20178;-79
2022/03/28 14:09:38;;;;;;;10.97;9.87;;;;;;;;;;5073204;28;20179;-80
2022/03/28 14:12:05;;;;;;;10.87;9.57;;;;;;;;;;5066608;28;20186;-77
2022/03/28 14:14:32;;;;;;;15.00;10.43;;;;;;;;;;5064120;28;20236;-78
2022/03/28 14:16:59;;;;;;;11.73;10.33;;;;;;;;;;5066743;28;20207;-78